Terminal Aerodrome Forecast
Issued by NWS Twin Cities, MN

Home | Current Version | Previous Version | Text Only | Print | Product List | Glossary On
Versions: 1 2 3 4 5 6 7 8 9 10 11 12 13 14 15 16 17 18 19 20
000
FTUS43 KMPX 141723
TAFSTC
TAF
KSTC 141723Z 1418/1518 30007KT P6SM -SHSN OVC012
     FM142100 31010KT P6SM BKN020
     FM150300 31011KT P6SM BKN040
     FM150500 30009KT P6SM BKN050
     FM150800 29007KT P6SM BKN030
     FM151100 29006KT P6SM BKN025
     FM151300 29004KT P6SM -SHSN OVC015=

USA.gov is the U.S. government's official web portal to all federal, state and local government web resources and services.